Time;durP1;ratioP1;P1;durP2;ratioP2;P2;SDS_P1;SDS_P2;PMS_P1;PMS_P2;Temp;Humidity;BMP_temperature;BMP_pressure;BME280_temperature;BME280_humidity;BME280_pressure;Samples;Min_cycle;Max_cycle;Signal;HPM_P1;HPM_P2
2022/01/07 00:02:12;;;;;;;87.15;40.63;;;;;;;;;;5060610;28;20020;-45
2022/01/07 00:04:43;;;;;;;44.38;19.80;;;;;;;;;;5061783;28;20127;-46
2022/01/07 00:07:09;;;;;;;36.77;16.33;;;;;;;;;;5061976;28;20025;-45
2022/01/07 00:09:36;;;;;;;45.60;20.83;;;;;;;;;;5060690;28;20114;-47
2022/01/07 00:12:04;;;;;;;22.45;11.35;;;;;;;;;;5061766;28;20179;-46
2022/01/07 00:14:32;;;;;;;40.65;18.85;;;;;;;;;;5063312;28;20032;-48
2022/01/07 00:16:58;;;;;;;25.83;12.02;;;;;;;;;;5064423;28;20020;-49
2022/01/07 00:19:24;;;;;;;41.13;19.65;;;;;;;;;;5064372;28;20525;-46
2022/01/07 00:21:51;;;;;;;44.28;20.48;;;;;;;;;;5062007;28;20027;-47
2022/01/07 00:24:17;;;;;;;67.75;28.77;;;;;;;;;;5062082;28;20044;-43
2022/01/07 00:26:43;;;;;;;29.92;13.60;;;;;;;;;;5064956;28;20055;-49
2022/01/07 00:29:09;;;;;;;39.65;18.27;;;;;;;;;;5072298;28;20080;-46
2022/01/07 00:31:35;;;;;;;42.40;19.38;;;;;;;;;;5084965;28;20021;-43
2022/01/07 00:34:01;;;;;;;33.47;15.13;;;;;;;;;;5092217;28;20133;-46
2022/01/07 00:36:28;;;;;;;61.15;27.42;;;;;;;;;;5091915;28;20032;-45
2022/01/07 00:38:54;;;;;;;60.08;26.65;;;;;;;;;;5092964;28;20386;-46
2022/01/07 00:41:20;;;;;;;70.68;29.60;;;;;;;;;;5092534;28;20150;-47
2022/01/07 00:43:48;;;;;;;38.08;13.52;;;;;;;;;;5092634;28;20115;-46
2022/01/07 00:46:14;;;;;;;39.58;18.35;;;;;;;;;;5089549;28;20501;-46
2022/01/07 00:48:40;;;;;;;38.08;17.77;;;;;;;;;;5072336;28;20028;-47
2022/01/07 00:51:09;;;;;;;41.97;19.90;;;;;;;;;;5072295;28;20023;-48
2022/01/07 00:53:35;;;;;;;55.25;23.90;;;;;;;;;;5072453;28;20067;-48
2022/01/07 00:56:01;;;;;;;54.17;26.73;;;;;;;;;;5072239;28;20477;-47
2022/01/07 00:58:29;;;;;;;51.33;24.58;;;;;;;;;;5072462;28;20059;-45
2022/01/07 01:00:56;;;;;;;36.28;16.05;;;;;;;;;;5071088;28;20032;-46
2022/01/07 01:03:22;;;;;;;83.55;35.15;;;;;;;;;;5072247;28;20115;-45
2022/01/07 01:05:49;;;;;;;74.15;31.80;;;;;;;;;;5071040;28;20040;-44
2022/01/07 01:08:15;;;;;;;62.83;29.55;;;;;;;;;;5072409;28;20032;-45
2022/01/07 01:10:41;;;;;;;46.05;20.02;;;;;;;;;;5073707;28;20035;-44
2022/01/07 01:13:09;;;;;;;60.10;23.98;;;;;;;;;;5075824;28;20103;-45
2022/01/07 01:15:36;;;;;;;65.18;30.77;;;;;;;;;;5080681;28;20338;-44
2022/01/07 01:18:02;;;;;;;49.38;22.17;;;;;;;;;;5087410;28;20024;-43
2022/01/07 01:20:29;;;;;;;52.58;21.73;;;;;;;;;;5075827;28;20517;-46
2022/01/07 01:22:57;;;;;;;53.60;25.40;;;;;;;;;;5075790;28;20020;-44
2022/01/07 01:25:24;;;;;;;24.30;11.55;;;;;;;;;;5075441;28;20058;-44
2022/01/07 01:27:50;;;;;;;26.17;12.35;;;;;;;;;;5075246;28;20048;-44
2022/01/07 01:30:17;;;;;;;46.55;20.83;;;;;;;;;;5075653;28;20051;-44
2022/01/07 01:32:44;;;;;;;57.10;23.83;;;;;;;;;;5074070;28;20039;-45
2022/01/07 01:35:11;;;;;;;46.03;20.17;;;;;;;;;;5075491;28;20028;-45
2022/01/07 01:37:37;;;;;;;54.35;22.40;;;;;;;;;;5075626;28;20206;-44
2022/01/07 01:40:04;;;;;;;72.55;32.90;;;;;;;;;;5075649;28;20032;-43
2022/01/07 01:42:30;;;;;;;40.17;21.10;;;;;;;;;;5075346;28;20029;-44
2022/01/07 01:44:56;;;;;;;71.78;28.20;;;;;;;;;;5075673;28;20039;-44
2022/01/07 01:47:22;;;;;;;46.15;19.98;;;;;;;;;;5093875;28;20096;-44
2022/01/07 01:49:49;;;;;;;41.15;19.50;;;;;;;;;;5095699;28;20028;-44
2022/01/07 01:52:15;;;;;;;60.85;26.02;;;;;;;;;;5095683;28;20027;-44
2022/01/07 01:54:43;;;;;;;47.08;21.58;;;;;;;;;;5094360;28;20027;-43
2022/01/07 01:57:09;;;;;;;33.25;14.15;;;;;;;;;;5095156;28;20060;-43
2022/01/07 01:59:35;;;;;;;50.17;23.27;;;;;;;;;;5095657;28;20035;-46
2022/01/07 02:02:01;;;;;;;41.75;18.13;;;;;;;;;;5095273;28;20030;-45
2022/01/07 02:04:29;;;;;;;35.60;17.40;;;;;;;;;;5094085;28;20063;-46
2022/01/07 02:06:56;;;;;;;28.88;13.60;;;;;;;;;;5095276;28;20016;-48
2022/01/07 02:09:34;;;;;;;23.67;12.57;;;;;;;;;;5095445;28;20024;-47
2022/01/07 02:12:00;;;;;;;33.40;15.95;;;;;;;;;;5095158;28;20099;-47
2022/01/07 02:14:26;;;;;;;19.83;8.82;;;;;;;;;;5095490;28;20043;-47
2022/01/07 02:16:52;;;;;;;14.30;6.72;;;;;;;;;;5095452;28;20073;-47
2022/01/07 02:19:25;;;;;;;17.17;6.65;;;;;;;;;;5095347;28;20028;-46
2022/01/07 02:21:53;;;;;;;15.40;7.40;;;;;;;;;;5094166;28;20020;-46
2022/01/07 02:24:19;;;;;;;16.05;7.18;;;;;;;;;;5095080;28;20036;-46
2022/01/07 02:26:47;;;;;;;28.88;13.52;;;;;;;;;;5093830;28;20425;-45
2022/01/07 02:29:13;;;;;;;34.35;14.50;;;;;;;;;;5094961;28;20048;-46
2022/01/07 02:31:39;;;;;;;11.23;5.57;;;;;;;;;;5095107;28;20370;-46
2022/01/07 02:34:05;;;;;;;27.80;12.32;;;;;;;;;;5094954;28;20031;-46
2022/01/07 02:36:31;;;;;;;14.68;6.30;;;;;;;;;;5094838;28;20047;-44
2022/01/07 02:38:57;;;;;;;12.82;6.30;;;;;;;;;;5094732;28;20073;-45
2022/01/07 02:41:23;;;;;;;21.55;10.80;;;;;;;;;;5094519;28;20767;-44
2022/01/07 02:43:50;;;;;;;13.68;5.90;;;;;;;;;;5094726;28;20032;-44
2022/01/07 02:46:16;;;;;;;37.60;15.70;;;;;;;;;;5094842;28;20031;-48
2022/01/07 02:48:44;;;;;;;17.23;9.15;;;;;;;;;;5094809;28;20382;-46
2022/01/07 02:51:10;;;;;;;24.15;11.05;;;;;;;;;;5093674;28;20111;-46
2022/01/07 02:53:36;;;;;;;18.00;7.53;;;;;;;;;;5094522;28;20028;-47
2022/01/07 02:56:02;;;;;;;31.40;13.82;;;;;;;;;;5094527;28;20046;-46
2022/01/07 02:58:29;;;;;;;32.25;12.85;;;;;;;;;;5094739;28;20389;-46
2022/01/07 03:00:55;;;;;;;25.35;9.32;;;;;;;;;;5094714;28;20020;-45
2022/01/07 03:03:23;;;;;;;20.90;9.77;;;;;;;;;;5094524;28;20028;-46
2022/01/07 03:05:49;;;;;;;17.48;7.05;;;;;;;;;;5094334;28;20032;-45
2022/01/07 03:08:15;;;;;;;15.98;6.38;;;;;;;;;;5094409;28;20023;-46
2022/01/07 03:10:41;;;;;;;22.13;8.40;;;;;;;;;;5094489;28;20024;-46
2022/01/07 03:13:09;;;;;;;19.40;7.95;;;;;;;;;;5094116;28;20027;-47
2022/01/07 03:15:37;;;;;;;18.02;7.57;;;;;;;;;;5093155;28;20524;-46
2022/01/07 03:18:04;;;;;;;21.73;7.82;;;;;;;;;;5094193;28;20517;-47
2022/01/07 03:20:30;;;;;;;21.05;7.18;;;;;;;;;;5094027;28;20024;-46
2022/01/07 03:22:56;;;;;;;17.70;7.97;;;;;;;;;;5094148;28;20035;-47
2022/01/07 03:25:27;;;;;;;15.07;6.35;;;;;;;;;;5094057;28;20040;-45
2022/01/07 03:27:54;;;;;;;21.13;8.30;;;;;;;;;;5094004;28;20040;-45
2022/01/07 03:30:20;;;;;;;18.98;6.65;;;;;;;;;;5093924;28;20075;-45
2022/01/07 03:32:46;;;;;;;19.27;7.47;;;;;;;;;;5093662;28;20020;-45
2022/01/07 03:35:12;;;;;;;26.75;10.80;;;;;;;;;;5093964;28;20040;-45
2022/01/07 03:37:39;;;;;;;17.60;5.25;;;;;;;;;;5093789;28;20111;-45
2022/01/07 03:40:06;;;;;;;21.20;7.97;;;;;;;;;;5093790;28;20104;-45
2022/01/07 03:42:32;;;;;;;23.95;8.40;;;;;;;;;;5092437;28;20048;-46
2022/01/07 03:44:58;;;;;;;20.60;7.32;;;;;;;;;;5093577;28;20028;-46
2022/01/07 03:47:24;;;;;;;24.65;9.32;;;;;;;;;;5093726;28;20028;-46
2022/01/07 03:49:50;;;;;;;28.40;8.98;;;;;;;;;;5093628;28;20047;-47
2022/01/07 03:52:16;;;;;;;18.77;6.80;;;;;;;;;;5093643;28;20084;-45
2022/01/07 03:54:43;;;;;;;22.95;7.80;;;;;;;;;;5093590;28;20030;-45
2022/01/07 03:57:10;;;;;;;25.05;8.50;;;;;;;;;;5093361;28;20020;-46
2022/01/07 03:59:36;;;;;;;24.67;7.50;;;;;;;;;;5093641;28;20470;-45
2022/01/07 04:02:03;;;;;;;21.08;8.15;;;;;;;;;;5093519;28;20378;-45
2022/01/07 04:04:29;;;;;;;22.05;7.20;;;;;;;;;;5093361;28;20375;-44
2022/01/07 04:06:55;;;;;;;21.38;6.47;;;;;;;;;;5093492;28;20016;-44
2022/01/07 04:09:21;;;;;;;21.25;7.10;;;;;;;;;;5093532;28;20028;-46
2022/01/07 04:11:47;;;;;;;21.65;7.95;;;;;;;;;;5093333;28;20027;-46
2022/01/07 04:14:13;;;;;;;21.50;7.45;;;;;;;;;;5093327;28;20034;-47
2022/01/07 04:16:39;;;;;;;23.27;8.23;;;;;;;;;;5094095;28;20377;-46
2022/01/07 04:19:07;;;;;;;20.00;7.60;;;;;;;;;;5093646;28;20024;-46
2022/01/07 04:21:34;;;;;;;20.15;7.35;;;;;;;;;;5093311;28;20012;-45
2022/01/07 04:24:00;;;;;;;22.48;8.02;;;;;;;;;;5093063;28;20016;-45
2022/01/07 04:26:26;;;;;;;22.48;7.32;;;;;;;;;;5093029;28;20028;-45
2022/01/07 04:28:54;;;;;;;22.90;8.02;;;;;;;;;;5093175;28;20044;-47
2022/01/07 04:31:20;;;;;;;16.15;6.20;;;;;;;;;;5093238;28;20024;-46
2022/01/07 04:33:46;;;;;;;19.73;6.65;;;;;;;;;;5093363;28;20085;-46
2022/01/07 04:36:12;;;;;;;20.77;7.68;;;;;;;;;;5093252;28;20020;-45
2022/01/07 04:38:39;;;;;;;24.58;8.90;;;;;;;;;;5093237;28;20099;-46
2022/01/07 04:41:05;;;;;;;21.30;7.85;;;;;;;;;;5093098;28;20024;-46
2022/01/07 04:43:33;;;;;;;25.50;7.45;;;;;;;;;;5093149;28;20385;-46
2022/01/07 04:45:59;;;;;;;22.35;8.48;;;;;;;;;;5095125;28;20036;-46
2022/01/07 04:48:25;;;;;;;28.13;9.07;;;;;;;;;;5097046;28;20103;-48
2022/01/07 04:50:51;;;;;;;21.98;10.00;;;;;;;;;;5097001;28;20377;-45
2022/01/07 04:53:18;;;;;;;18.65;9.57;;;;;;;;;;5096922;28;20374;-45
2022/01/07 04:55:44;;;;;;;21.42;11.90;;;;;;;;;;5096939;28;20385;-46
2022/01/07 04:58:12;;;;;;;15.60;8.00;;;;;;;;;;5096697;28;20032;-46
2022/01/07 05:00:39;;;;;;;13.70;6.85;;;;;;;;;;5096942;28;20403;-45
2022/01/07 05:03:05;;;;;;;15.43;7.78;;;;;;;;;;5096934;28;20024;-46
2022/01/07 05:05:31;;;;;;;17.08;6.53;;;;;;;;;;5096778;28;20447;-45
2022/01/07 05:07:57;;;;;;;12.68;5.55;;;;;;;;;;5096515;28;20059;-46
2022/01/07 05:10:24;;;;;;;11.77;5.50;;;;;;;;;;5096631;28;20024;-45
2022/01/07 05:12:54;;;;;;;11.15;5.95;;;;;;;;;;5096347;28;20020;-47
2022/01/07 05:15:22;;;;;;;13.35;6.75;;;;;;;;;;5096517;28;20016;-46
2022/01/07 05:17:49;;;;;;;13.55;6.40;;;;;;;;;;5096654;28;20024;-46
2022/01/07 05:20:15;;;;;;;14.80;6.53;;;;;;;;;;5096475;28;20035;-45
2022/01/07 05:22:45;;;;;;;13.65;6.45;;;;;;;;;;5096497;28;20424;-46
2022/01/07 05:25:12;;;;;;;12.18;5.35;;;;;;;;;;5096360;28;20064;-45
2022/01/07 05:27:40;;;;;;;13.52;5.88;;;;;;;;;;5095914;28;20497;-48
2022/01/07 05:30:08;;;;;;;10.07;5.72;;;;;;;;;;5096373;28;20182;-45
2022/01/07 05:32:36;;;;;;;18.92;7.65;;;;;;;;;;5096216;28;20022;-46
2022/01/07 05:35:03;;;;;;;16.27;6.88;;;;;;;;;;5096211;28;20055;-48
2022/01/07 05:37:29;;;;;;;20.25;9.00;;;;;;;;;;5096281;28;20024;-47
2022/01/07 05:39:57;;;;;;;15.65;7.63;;;;;;;;;;5096046;28;20026;-45
2022/01/07 05:42:23;;;;;;;17.10;8.60;;;;;;;;;;5095944;28;20012;-46
2022/01/07 05:44:51;;;;;;;22.63;10.73;;;;;;;;;;5096446;28;20036;-46
2022/01/07 05:47:17;;;;;;;28.10;11.80;;;;;;;;;;5096092;28;20051;-46
2022/01/07 05:49:44;;;;;;;23.38;9.10;;;;;;;;;;5095807;28;20028;-45
2022/01/07 05:52:10;;;;;;;19.05;8.18;;;;;;;;;;5095926;28;20024;-45
2022/01/07 05:54:36;;;;;;;18.52;6.05;;;;;;;;;;5095669;28;20106;-45
2022/01/07 05:57:03;;;;;;;15.23;5.30;;;;;;;;;;5095263;28;20028;-46
2022/01/07 05:59:29;;;;;;;14.93;7.00;;;;;;;;;;5094656;28;20054;-45
2022/01/07 06:01:55;;;;;;;13.27;7.07;;;;;;;;;;5095576;28;20020;-45
2022/01/07 06:04:21;;;;;;;14.90;6.20;;;;;;;;;;5094441;28;20436;-45
2022/01/07 06:06:47;;;;;;;18.98;8.60;;;;;;;;;;5095796;28;20020;-46
2022/01/07 06:09:13;;;;;;;18.35;8.68;;;;;;;;;;5095571;28;20024;-45
2022/01/07 06:11:39;;;;;;;21.85;9.95;;;;;;;;;;5095239;28;20020;-45
2022/01/07 06:14:08;;;;;;;19.50;8.73;;;;;;;;;;5095280;28;20027;-45
2022/01/07 06:16:34;;;;;;;21.20;8.65;;;;;;;;;;5095306;28;20071;-45
2022/01/07 06:19:00;;;;;;;16.08;7.93;;;;;;;;;;5095372;28;20077;-44
2022/01/07 06:21:26;;;;;;;25.92;9.30;;;;;;;;;;5095109;28;20051;-45
2022/01/07 06:23:53;;;;;;;17.55;9.18;;;;;;;;;;5095133;28;20056;-45
2022/01/07 06:26:19;;;;;;;13.50;8.50;;;;;;;;;;5095262;28;20457;-45
2022/01/07 06:28:45;;;;;;;15.95;8.88;;;;;;;;;;5094964;28;20044;-45
2022/01/07 06:31:11;;;;;;;13.73;7.82;;;;;;;;;;5095059;28;20462;-45
2022/01/07 06:33:38;;;;;;;16.67;8.68;;;;;;;;;;5094952;28;20052;-45
2022/01/07 06:36:04;;;;;;;16.73;8.63;;;;;;;;;;5094871;28;20027;-49
2022/01/07 06:38:30;;;;;;;13.27;6.55;;;;;;;;;;5094949;28;20436;-46
2022/01/07 06:40:56;;;;;;;15.40;6.53;;;;;;;;;;5094690;28;20031;-46
2022/01/07 06:43:25;;;;;;;18.55;7.10;;;;;;;;;;5094752;28;20051;-47
2022/01/07 06:45:53;;;;;;;17.55;8.13;;;;;;;;;;5094958;28;20483;-46
2022/01/07 06:48:19;;;;;;;17.67;7.55;;;;;;;;;;5094800;28;20028;-45
2022/01/07 06:50:45;;;;;;;16.23;7.68;;;;;;;;;;5094546;28;20024;-45
2022/01/07 06:53:12;;;;;;;14.57;6.70;;;;;;;;;;5094632;28;20028;-45
2022/01/07 06:55:38;;;;;;;15.40;9.30;;;;;;;;;;5094542;28;20024;-44
2022/01/07 06:58:04;;;;;;;16.58;7.60;;;;;;;;;;5094234;28;20154;-45
2022/01/07 07:00:30;;;;;;;18.38;9.60;;;;;;;;;;5094364;28;20024;-46
2022/01/07 07:02:56;;;;;;;19.23;9.95;;;;;;;;;;5094396;28;20020;-46
2022/01/07 07:05:24;;;;;;;17.88;9.82;;;;;;;;;;5094426;28;20097;-46
2022/01/07 07:07:50;;;;;;;28.60;12.30;;;;;;;;;;5093733;28;20020;-47
2022/01/07 07:10:16;;;;;;;30.67;16.08;;;;;;;;;;5094374;28;20031;-45
2022/01/07 07:12:42;;;;;;;29.20;16.42;;;;;;;;;;5094214;28;20029;-47
2022/01/07 07:15:09;;;;;;;31.27;16.92;;;;;;;;;;5094148;28;20498;-45
2022/01/07 07:17:35;;;;;;;48.40;19.85;;;;;;;;;;5094145;28;20028;-47
2022/01/07 07:20:03;;;;;;;41.80;21.80;;;;;;;;;;5094216;28;20495;-44
2022/01/07 07:22:30;;;;;;;63.08;31.80;;;;;;;;;;5094089;28;20024;-44
2022/01/07 07:24:56;;;;;;;58.20;25.63;;;;;;;;;;5093828;28;20036;-44
2022/01/07 07:27:22;;;;;;;47.67;22.58;;;;;;;;;;5093459;28;20024;-45
2022/01/07 07:29:48;;;;;;;36.70;18.77;;;;;;;;;;5094020;28;20032;-45
2022/01/07 07:32:22;;;;;;;38.97;22.85;;;;;;;;;;5093966;28;20020;-47
2022/01/07 07:34:59;;;;;;;37.70;22.02;;;;;;;;;;5093904;28;20436;-44
2022/01/07 07:37:25;;;;;;;38.80;20.80;;;;;;;;;;5093849;28;20119;-44
2022/01/07 07:39:51;;;;;;;31.65;17.90;;;;;;;;;;5093713;28;20518;-44
2022/01/07 07:42:17;;;;;;;31.48;17.27;;;;;;;;;;5093728;28;20032;-44
2022/01/07 07:44:43;;;;;;;38.55;22.20;;;;;;;;;;5093756;28;20082;-49
2022/01/07 07:47:09;;;;;;;51.60;25.60;;;;;;;;;;5093884;28;20028;-48
2022/01/07 07:49:35;;;;;;;48.15;25.30;;;;;;;;;;5093950;28;20028;-45
2022/01/07 07:52:01;;;;;;;29.85;17.85;;;;;;;;;;5093839;28;20421;-45
2022/01/07 07:54:27;;;;;;;39.60;19.45;;;;;;;;;;5093403;28;20020;-44
2022/01/07 07:56:57;;;;;;;30.95;18.00;;;;;;;;;;5093463;28;20114;-45
2022/01/07 07:59:23;;;;;;;31.35;17.08;;;;;;;;;;5092316;28;20020;-45
2022/01/07 08:01:49;;;;;;;26.45;12.02;;;;;;;;;;5093452;28;20473;-45
2022/01/07 08:04:18;;;;;;;25.80;11.93;;;;;;;;;;5093403;28;20035;-44
2022/01/07 08:06:44;;;;;;;26.73;13.18;;;;;;;;;;5093537;28;20062;-45
2022/01/07 08:09:11;;;;;;;29.67;14.88;;;;;;;;;;5093399;28;20537;-48
2022/01/07 08:11:49;;;;;;;28.83;16.35;;;;;;;;;;5093384;28;20109;-45
2022/01/07 08:17:00;;;;;;;22.05;9.65;;;;;;;;;;5092793;28;20046;-42
2022/01/07 08:19:26;;;;;;;27.20;13.60;;;;;;;;;;5094523;28;20020;-44
2022/01/07 08:21:52;;;;;;;39.08;20.92;;;;;;;;;;5096911;28;20478;-45
2022/01/07 08:24:18;;;;;;;57.85;29.75;;;;;;;;;;5097402;28;20036;-44
2022/01/07 08:26:45;;;;;;;43.28;20.50;;;;;;;;;;5097324;28;20028;-44
2022/01/07 08:29:13;;;;;;;67.25;32.58;;;;;;;;;;5097027;28;20121;-45
2022/01/07 08:36:53;;;;;;;28.13;13.88;;;;;;;;;;5097244;28;20112;-44
2022/01/07 08:39:19;;;;;;;30.88;14.50;;;;;;;;;;5097096;28;20028;-45
2022/01/07 08:41:45;;;;;;;28.70;15.13;;;;;;;;;;5097043;28;20478;-44
2022/01/07 08:44:12;;;;;;;23.05;11.23;;;;;;;;;;5096907;28;20020;-44
2022/01/07 08:46:38;;;;;;;26.73;13.48;;;;;;;;;;5096892;28;20097;-45
2022/01/07 08:49:05;;;;;;;44.30;22.75;;;;;;;;;;5096834;28;20038;-45
2022/01/07 08:51:34;;;;;;;28.83;14.40;;;;;;;;;;5096815;28;20538;-45
2022/01/07 08:54:00;;;;;;;24.65;14.35;;;;;;;;;;5096763;28;20020;-44
2022/01/07 08:56:28;;;;;;;43.25;23.48;;;;;;;;;;5096619;28;20497;-41
2022/01/07 08:58:55;;;;;;;28.63;16.85;;;;;;;;;;5096769;28;20073;-46
2022/01/07 09:01:23;;;;;;;33.40;17.15;;;;;;;;;;5096703;28;20052;-44
2022/01/07 09:03:49;;;;;;;73.68;36.33;;;;;;;;;;5096651;28;20031;-49
2022/01/07 09:06:15;;;;;;;101.60;54.33;;;;;;;;;;5096487;28;20131;-45
2022/01/07 09:08:41;;;;;;;47.97;23.08;;;;;;;;;;5096388;28;20555;-43
2022/01/07 09:11:08;;;;;;;61.05;32.83;;;;;;;;;;5096434;28;20049;-44
2022/01/07 09:13:34;;;;;;;21.23;11.13;;;;;;;;;;5096531;28;20016;-43
2022/01/07 09:16:00;;;;;;;29.40;15.75;;;;;;;;;;5096382;28;20059;-43
2022/01/07 09:18:26;;;;;;;25.80;13.65;;;;;;;;;;5096360;28;20073;-45
2022/01/07 09:20:54;;;;;;;48.53;27.58;;;;;;;;;;5096398;28;20032;-43
2022/01/07 09:23:20;;;;;;;26.63;15.70;;;;;;;;;;5095314;28;20538;-44
2022/01/07 09:25:46;;;;;;;32.38;20.05;;;;;;;;;;5095430;28;20032;-44
2022/01/07 09:28:13;;;;;;;39.25;20.67;;;;;;;;;;5095750;28;20052;-46
2022/01/07 09:30:39;;;;;;;43.72;22.17;;;;;;;;;;5095534;28;20034;-45
2022/01/07 09:33:05;;;;;;;33.90;20.52;;;;;;;;;;5095826;28;20462;-44
2022/01/07 09:35:31;;;;;;;25.48;14.00;;;;;;;;;;5095901;28;20527;-44
2022/01/07 09:37:57;;;;;;;42.00;21.20;;;;;;;;;;5096002;28;20038;-41
2022/01/07 09:40:23;;;;;;;26.27;14.27;;;;;;;;;;5095521;28;20147;-46
2022/01/07 09:43:00;;;;;;;30.00;15.75;;;;;;;;;;5095767;28;20439;-44
2022/01/07 09:45:27;;;;;;;40.60;22.17;;;;;;;;;;5095717;28;20028;-44
2022/01/07 09:47:53;;;;;;;40.65;17.20;;;;;;;;;;5095126;28;20023;-44
2022/01/07 09:50:20;;;;;;;28.23;12.90;;;;;;;;;;5095223;28;20153;-43
2022/01/07 09:52:46;;;;;;;18.30;9.50;;;;;;;;;;5095248;28;20020;-46
2022/01/07 09:55:12;;;;;;;23.55;13.75;;;;;;;;;;5095281;28;20031;-44
2022/01/07 09:57:38;;;;;;;13.32;7.93;;;;;;;;;;5094947;28;20494;-42
2022/01/07 10:00:06;;;;;;;16.45;9.02;;;;;;;;;;5095048;28;20059;-43
2022/01/07 10:02:34;;;;;;;40.63;20.65;;;;;;;;;;5088502;28;20494;-45
2022/01/07 10:05:14;;;;;;;27.02;12.65;;;;;;;;;;5070353;28;20505;-44
2022/01/07 10:07:40;;;;;;;21.15;10.85;;;;;;;;;;5070546;28;20055;-47
2022/01/07 10:10:07;;;;;;;20.25;11.65;;;;;;;;;;5070656;28;20542;-46
2022/01/07 10:12:49;;;;;;;49.28;26.98;;;;;;;;;;5070218;28;20031;-49
2022/01/07 10:15:16;;;;;;;89.80;48.67;;;;;;;;;;5069729;28;20032;-46
2022/01/07 10:17:53;;;;;;;48.88;27.08;;;;;;;;;;5070119;28;20032;-47
2022/01/07 10:20:22;;;;;;;37.20;21.38;;;;;;;;;;5070359;28;20056;-45
2022/01/07 10:23:04;;;;;;;39.40;20.17;;;;;;;;;;5070636;28;20027;-44
2022/01/07 10:25:34;;;;;;;42.05;20.80;;;;;;;;;;5070220;28;20072;-44
2022/01/07 10:28:06;;;;;;;26.88;11.70;;;;;;;;;;5070162;28;20047;-48
2022/01/07 10:30:44;;;;;;;34.00;16.98;;;;;;;;;;5070445;28;20024;-50
2022/01/07 10:33:29;;;;;;;37.55;19.98;;;;;;;;;;5069638;28;20028;-49
2022/01/07 10:36:13;;;;;;;19.92;10.60;;;;;;;;;;5069577;28;20052;-46
2022/01/07 10:38:54;;;;;;;24.77;12.43;;;;;;;;;;5069233;28;20031;-46
2022/01/07 10:41:23;;;;;;;12.73;7.40;;;;;;;;;;5069432;28;20032;-48
2022/01/07 10:43:52;;;;;;;24.98;11.80;;;;;;;;;;5067812;28;20413;-48
2022/01/07 10:46:19;;;;;;;33.10;12.85;;;;;;;;;;5069308;28;20119;-44
2022/01/07 10:48:56;;;;;;;20.48;11.40;;;;;;;;;;5069205;28;20075;-47
2022/01/07 10:51:23;;;;;;;19.67;9.82;;;;;;;;;;5069023;28;20024;-45
2022/01/07 10:53:50;;;;;;;19.30;9.85;;;;;;;;;;5069283;28;20489;-44
2022/01/07 10:56:19;;;;;;;21.52;11.30;;;;;;;;;;5069022;28;20027;-48
2022/01/07 10:58:59;;;;;;;20.00;9.85;;;;;;;;;;5069311;28;20490;-47
2022/01/07 11:01:26;;;;;;;21.00;11.82;;;;;;;;;;5068754;28;20549;-47
2022/01/07 11:03:55;;;;;;;28.33;13.13;;;;;;;;;;5069015;28;20074;-47
2022/01/07 11:06:21;;;;;;;21.00;11.65;;;;;;;;;;5068613;28;20097;-47
2022/01/07 11:08:48;;;;;;;28.90;11.50;;;;;;;;;;5069035;28;20020;-44
2022/01/07 11:11:15;;;;;;;21.63;10.75;;;;;;;;;;5068807;28;20394;-45
2022/01/07 11:13:41;;;;;;;21.17;10.10;;;;;;;;;;5069512;28;20020;-46
2022/01/07 11:16:07;;;;;;;29.80;14.00;;;;;;;;;;5068684;28;20031;-51
2022/01/07 11:18:37;;;;;;;38.28;17.73;;;;;;;;;;5069512;28;21070;-45
2022/01/07 11:21:04;;;;;;;31.05;13.43;;;;;;;;;;5069362;28;20073;-48
2022/01/07 11:23:30;;;;;;;14.77;8.65;;;;;;;;;;5069365;28;20024;-45
2022/01/07 11:26:01;;;;;;;28.60;15.35;;;;;;;;;;5069005;28;20499;-47
2022/01/07 11:28:28;;;;;;;45.35;21.42;;;;;;;;;;5069020;28;20052;-49
2022/01/07 11:31:04;;;;;;;68.32;32.47;;;;;;;;;;5069057;28;20034;-46
2022/01/07 11:33:30;;;;;;;69.88;35.15;;;;;;;;;;5069500;28;20314;-46
2022/01/07 11:35:56;;;;;;;172.95;73.20;;;;;;;;;;5069470;28;20059;-50
2022/01/07 11:38:33;;;;;;;320.02;185.93;;;;;;;;;;5069225;28;20024;-51
2022/01/07 11:41:00;;;;;;;312.20;161.65;;;;;;;;;;5069431;28;20024;-47
2022/01/07 11:43:31;;;;;;;64.18;32.78;;;;;;;;;;5068994;28;20471;-47
2022/01/07 11:45:57;;;;;;;52.13;27.55;;;;;;;;;;5069072;28;20047;-49
2022/01/07 11:48:25;;;;;;;114.13;59.30;;;;;;;;;;5068932;28;20533;-50
2022/01/07 11:50:59;;;;;;;206.02;94.40;;;;;;;;;;5068396;28;20473;-45
2022/01/07 11:53:28;;;;;;;114.72;57.95;;;;;;;;;;5073405;28;20063;-48
2022/01/07 11:56:03;;;;;;;144.05;72.30;;;;;;;;;;5072866;28;20025;-46
2022/01/07 11:58:38;;;;;;;49.55;23.27;;;;;;;;;;5073098;28;20024;-45
2022/01/07 12:01:04;;;;;;;62.22;33.92;;;;;;;;;;5073247;28;20474;-48
2022/01/07 12:03:46;;;;;;;72.30;38.10;;;;;;;;;;5073383;28;20037;-45
2022/01/07 12:06:25;;;;;;;66.80;34.28;;;;;;;;;;5069446;28;20167;-50
2022/01/07 12:09:05;;;;;;;35.95;20.05;;;;;;;;;;5068482;28;20063;-46
2022/01/07 12:11:31;;;;;;;83.95;43.20;;;;;;;;;;5068291;28;20064;-47
2022/01/07 12:13:58;;;;;;;70.88;36.33;;;;;;;;;;5069171;28;20028;-51
2022/01/07 12:16:26;;;;;;;72.18;38.83;;;;;;;;;;5068813;28;20032;-50
2022/01/07 12:18:53;;;;;;;52.33;27.48;;;;;;;;;;5068480;28;20028;-46
2022/01/07 12:21:19;;;;;;;30.33;15.38;;;;;;;;;;5068948;28;20042;-47
2022/01/07 12:23:45;;;;;;;37.22;20.10;;;;;;;;;;5068045;28;20048;-50
2022/01/07 12:26:12;;;;;;;70.05;34.72;;;;;;;;;;5068188;28;20493;-49
2022/01/07 12:28:40;;;;;;;72.00;35.80;;;;;;;;;;5068123;28;20524;-46
2022/01/07 12:31:12;;;;;;;41.30;22.33;;;;;;;;;;5068422;28;20039;-45
2022/01/07 12:33:50;;;;;;;37.13;17.25;;;;;;;;;;5068508;28;20360;-46
2022/01/07 12:36:25;;;;;;;32.15;15.82;;;;;;;;;;5068626;28;20032;-50
2022/01/07 12:39:18;;;;;;;33.72;17.10;;;;;;;;;;5068259;28;20023;-49
2022/01/07 12:41:54;;;;;;;34.30;16.90;;;;;;;;;;5066479;28;20063;-48
2022/01/07 12:44:20;;;;;;;73.93;33.28;;;;;;;;;;5068290;28;20024;-47
2022/01/07 12:46:51;;;;;;;119.60;53.33;;;;;;;;;;5067911;28;20080;-47
2022/01/07 12:49:20;;;;;;;86.57;40.03;;;;;;;;;;5068376;28;20031;-49
2022/01/07 12:51:59;;;;;;;67.78;31.48;;;;;;;;;;5068089;28;20028;-49
2022/01/07 12:54:26;;;;;;;36.70;17.40;;;;;;;;;;5068073;28;20024;-46
2022/01/07 12:56:52;;;;;;;61.85;31.20;;;;;;;;;;5067967;28;21078;-46
2022/01/07 12:59:21;;;;;;;78.25;36.85;;;;;;;;;;5068170;28;20036;-48
2022/01/07 13:01:49;;;;;;;49.42;26.55;;;;;;;;;;5067641;28;20042;-45
2022/01/07 13:04:17;;;;;;;25.98;14.68;;;;;;;;;;5067619;28;20027;-44
2022/01/07 13:06:44;;;;;;;60.33;30.10;;;;;;;;;;5068772;28;20504;-47
2022/01/07 13:09:11;;;;;;;31.55;17.70;;;;;;;;;;5070882;28;20325;-45
2022/01/07 13:11:40;;;;;;;55.88;29.75;;;;;;;;;;5071069;28;20039;-47
2022/01/07 13:14:07;;;;;;;29.73;16.48;;;;;;;;;;5070919;28;20532;-46
2022/01/07 13:16:34;;;;;;;24.38;14.93;;;;;;;;;;5071547;28;20047;-47
2022/01/07 13:19:11;;;;;;;21.48;12.55;;;;;;;;;;5071823;28;20016;-44
2022/01/07 13:21:39;;;;;;;44.45;23.73;;;;;;;;;;5072154;28;20023;-46
2022/01/07 13:24:05;;;;;;;31.23;15.77;;;;;;;;;;5071467;28;20037;-48
2022/01/07 13:26:33;;;;;;;39.47;20.48;;;;;;;;;;5071409;28;20080;-45
2022/01/07 13:29:14;;;;;;;76.30;42.67;;;;;;;;;;5071195;28;20049;-44
2022/01/07 13:31:43;;;;;;;57.50;31.35;;;;;;;;;;5071671;28;20032;-49
2022/01/07 13:34:09;;;;;;;31.00;15.10;;;;;;;;;;5071503;28;20036;-44
2022/01/07 13:36:37;;;;;;;18.17;10.35;;;;;;;;;;5071776;28;20020;-48
2022/01/07 13:39:05;;;;;;;16.05;8.00;;;;;;;;;;5071333;28;20020;-51
2022/01/07 13:41:31;;;;;;;21.67;11.90;;;;;;;;;;5071068;28;20032;-44
2022/01/07 13:44:07;;;;;;;15.95;8.35;;;;;;;;;;5070713;28;20051;-48
2022/01/07 13:46:37;;;;;;;27.70;13.40;;;;;;;;;;5071991;28;20051;-49
2022/01/07 13:49:07;;;;;;;16.55;8.52;;;;;;;;;;5071430;28;20488;-52
2022/01/07 13:51:34;;;;;;;21.20;9.35;;;;;;;;;;5092139;28;20127;-47
2022/01/07 13:54:04;;;;;;;21.45;10.18;;;;;;;;;;5095826;28;20093;-43
2022/01/07 13:56:30;;;;;;;17.98;9.90;;;;;;;;;;5095555;28;20058;-45
2022/01/07 13:59:03;;;;;;;28.67;12.57;;;;;;;;;;5095597;28;20024;-45
2022/01/07 14:01:29;;;;;;;19.38;9.93;;;;;;;;;;5095657;28;20028;-44
2022/01/07 14:03:56;;;;;;;19.45;9.85;;;;;;;;;;5095564;28;20016;-44
2022/01/07 14:06:24;;;;;;;20.98;11.70;;;;;;;;;;5095396;28;20043;-45
2022/01/07 14:08:50;;;;;;;21.45;11.35;;;;;;;;;;5095543;28;20500;-45
2022/01/07 14:11:17;;;;;;;39.88;18.08;;;;;;;;;;5095355;28;20075;-47
2022/01/07 14:13:43;;;;;;;37.17;15.77;;;;;;;;;;5094194;28;20470;-43
2022/01/07 14:16:21;;;;;;;31.27;12.77;;;;;;;;;;5095176;28;20031;-44
2022/01/07 14:18:59;;;;;;;41.38;19.08;;;;;;;;;;5095160;28;20077;-44
2022/01/07 14:21:26;;;;;;;38.95;17.02;;;;;;;;;;5095336;28;20031;-44
2022/01/07 14:23:55;;;;;;;51.67;21.67;;;;;;;;;;5095210;28;20107;-44
2022/01/07 14:26:21;;;;;;;58.75;22.65;;;;;;;;;;5095031;28;20044;-46
2022/01/07 14:28:49;;;;;;;47.13;20.27;;;;;;;;;;5095053;28;20072;-48
2022/01/07 14:31:17;;;;;;;36.13;14.52;;;;;;;;;;5093936;28;20030;-46
2022/01/07 14:33:44;;;;;;;41.17;17.05;;;;;;;;;;5094995;28;20051;-45